sensor_id;sensor_type;location;lat;lon;timestamp;P1;durP1;ratioP1;P2;durP2;ratioP2
45970;SDS011;31681;48.982;8.394;2023-05-24T00:02:14;5.65;;;3.08;;
45970;SDS011;31681;48.982;8.394;2023-05-24T00:04:40;8.02;;;3.00;;
45970;SDS011;31681;48.982;8.394;2023-05-24T00:07:05;5.95;;;2.78;;
45970;SDS011;31681;48.982;8.394;2023-05-24T00:09:31;4.70;;;3.20;;
45970;SDS011;31681;48.982;8.394;2023-05-24T00:11:56;7.10;;;3.42;;
45970;SDS011;31681;48.982;8.394;2023-05-24T00:14:22;7.30;;;2.88;;
45970;SDS011;31681;48.982;8.394;2023-05-24T00:16:48;4.63;;;3.00;;
45970;SDS011;31681;48.982;8.394;2023-05-24T00:19:13;6.97;;;3.30;;
45970;SDS011;31681;48.982;8.394;2023-05-24T00:21:45;7.05;;;2.85;;
45970;SDS011;31681;48.982;8.394;2023-05-24T00:24:12;6.03;;;3.38;;
45970;SDS011;31681;48.982;8.394;2023-05-24T00:26:37;5.93;;;2.90;;
45970;SDS011;31681;48.982;8.394;2023-05-24T00:29:03;6.75;;;3.10;;
45970;SDS011;31681;48.982;8.394;2023-05-24T00:31:28;6.72;;;3.10;;
45970;SDS011;31681;48.982;8.394;2023-05-24T00:33:54;6.43;;;3.15;;
45970;SDS011;31681;48.982;8.394;2023-05-24T00:36:19;5.10;;;2.95;;
45970;SDS011;31681;48.982;8.394;2023-05-24T00:38:46;7.10;;;3.10;;
45970;SDS011;31681;48.982;8.394;2023-05-24T00:41:14;6.68;;;3.33;;
45970;SDS011;31681;48.982;8.394;2023-05-24T00:43:39;5.72;;;3.60;;
45970;SDS011;31681;48.982;8.394;2023-05-24T00:48:42;9.20;;;3.50;;
45970;SDS011;31681;48.982;8.394;2023-05-24T00:51:07;8.02;;;3.83;;
45970;SDS011;31681;48.982;8.394;2023-05-24T00:53:33;8.77;;;3.28;;
45970;SDS011;31681;48.982;8.394;2023-05-24T00:55:59;4.88;;;2.95;;
45970;SDS011;31681;48.982;8.394;2023-05-24T00:58:25;7.07;;;3.10;;
45970;SDS011;31681;48.982;8.394;2023-05-24T01:00:57;6.68;;;3.25;;
45970;SDS011;31681;48.982;8.394;2023-05-24T01:03:26;10.52;;;3.95;;
45970;SDS011;31681;48.982;8.394;2023-05-24T01:05:58;7.22;;;3.30;;
45970;SDS011;31681;48.982;8.394;2023-05-24T01:08:44;9.75;;;3.70;;
45970;SDS011;31681;48.982;8.394;2023-05-24T01:16:21;6.78;;;3.20;;
45970;SDS011;31681;48.982;8.394;2023-05-24T01:18:52;7.80;;;3.50;;
45970;SDS011;31681;48.982;8.394;2023-05-24T01:26:32;7.07;;;3.50;;
45970;SDS011;31681;48.982;8.394;2023-05-24T01:29:01;6.18;;;3.25;;
45970;SDS011;31681;48.982;8.394;2023-05-24T01:31:27;8.55;;;4.18;;
45970;SDS011;31681;48.982;8.394;2023-05-24T01:33:52;8.20;;;3.42;;
45970;SDS011;31681;48.982;8.394;2023-05-24T01:36:18;7.93;;;3.30;;
45970;SDS011;31681;48.982;8.394;2023-05-24T01:38:43;6.85;;;3.50;;
45970;SDS011;31681;48.982;8.394;2023-05-24T01:41:34;7.53;;;3.83;;
45970;SDS011;31681;48.982;8.394;2023-05-24T01:43:59;9.25;;;4.13;;
45970;SDS011;31681;48.982;8.394;2023-05-24T01:46:36;6.78;;;3.60;;
45970;SDS011;31681;48.982;8.394;2023-05-24T01:51:50;10.80;;;3.78;;
45970;SDS011;31681;48.982;8.394;2023-05-24T01:54:19;6.25;;;3.47;;
45970;SDS011;31681;48.982;8.394;2023-05-24T01:56:45;6.28;;;3.50;;
45970;SDS011;31681;48.982;8.394;2023-05-24T01:59:12;11.57;;;4.32;;
45970;SDS011;31681;48.982;8.394;2023-05-24T02:01:39;10.68;;;3.50;;
45970;SDS011;31681;48.982;8.394;2023-05-24T02:04:06;8.98;;;3.97;;
45970;SDS011;31681;48.982;8.394;2023-05-24T02:06:31;9.70;;;4.10;;
45970;SDS011;31681;48.982;8.394;2023-05-24T02:08:56;9.27;;;3.95;;
45970;SDS011;31681;48.982;8.394;2023-05-24T02:11:22;5.85;;;3.65;;
45970;SDS011;31681;48.982;8.394;2023-05-24T02:13:47;6.45;;;3.75;;
45970;SDS011;31681;48.982;8.394;2023-05-24T02:16:13;9.23;;;3.85;;
45970;SDS011;31681;48.982;8.394;2023-05-24T02:18:38;8.73;;;4.30;;
45970;SDS011;31681;48.982;8.394;2023-05-24T02:21:04;9.23;;;3.60;;
45970;SDS011;31681;48.982;8.394;2023-05-24T02:23:29;14.63;;;5.32;;
45970;SDS011;31681;48.982;8.394;2023-05-24T02:25:58;9.02;;;3.85;;
45970;SDS011;31681;48.982;8.394;2023-05-24T02:28:23;8.50;;;3.78;;
45970;SDS011;31681;48.982;8.394;2023-05-24T02:30:48;8.27;;;3.70;;
45970;SDS011;31681;48.982;8.394;2023-05-24T02:33:15;8.82;;;3.40;;
45970;SDS011;31681;48.982;8.394;2023-05-24T02:35:40;9.23;;;3.78;;
45970;SDS011;31681;48.982;8.394;2023-05-24T02:38:06;8.48;;;3.80;;
45970;SDS011;31681;48.982;8.394;2023-05-24T02:40:31;12.30;;;4.35;;
45970;SDS011;31681;48.982;8.394;2023-05-24T02:42:57;10.88;;;4.75;;
45970;SDS011;31681;48.982;8.394;2023-05-24T02:45:22;8.98;;;3.65;;
45970;SDS011;31681;48.982;8.394;2023-05-24T02:47:48;11.80;;;3.80;;
45970;SDS011;31681;48.982;8.394;2023-05-24T02:50:13;9.00;;;3.42;;
45970;SDS011;31681;48.982;8.394;2023-05-24T02:52:39;13.40;;;4.18;;
45970;SDS011;31681;48.982;8.394;2023-05-24T02:55:04;11.38;;;3.80;;
45970;SDS011;31681;48.982;8.394;2023-05-24T02:57:31;9.02;;;3.83;;
45970;SDS011;31681;48.982;8.394;2023-05-24T02:59:58;7.85;;;3.85;;
45970;SDS011;31681;48.982;8.394;2023-05-24T03:02:24;11.50;;;4.30;;
45970;SDS011;31681;48.982;8.394;2023-05-24T03:04:52;6.82;;;3.47;;
45970;SDS011;31681;48.982;8.394;2023-05-24T03:07:18;9.68;;;3.78;;
45970;SDS011;31681;48.982;8.394;2023-05-24T03:09:43;9.48;;;3.45;;
45970;SDS011;31681;48.982;8.394;2023-05-24T03:12:08;12.30;;;3.40;;
45970;SDS011;31681;48.982;8.394;2023-05-24T03:14:34;11.13;;;3.95;;
45970;SDS011;31681;48.982;8.394;2023-05-24T03:16:59;6.80;;;4.10;;
45970;SDS011;31681;48.982;8.394;2023-05-24T03:19:25;11.75;;;3.60;;
45970;SDS011;31681;48.982;8.394;2023-05-24T03:21:50;8.60;;;3.67;;
45970;SDS011;31681;48.982;8.394;2023-05-24T03:24:16;10.43;;;4.15;;
45970;SDS011;31681;48.982;8.394;2023-05-24T03:26:42;12.70;;;4.55;;
45970;SDS011;31681;48.982;8.394;2023-05-24T03:29:07;8.38;;;3.67;;
45970;SDS011;31681;48.982;8.394;2023-05-24T03:31:37;6.03;;;3.38;;
45970;SDS011;31681;48.982;8.394;2023-05-24T03:34:03;8.75;;;3.42;;
45970;SDS011;31681;48.982;8.394;2023-05-24T03:36:30;7.40;;;3.78;;
45970;SDS011;31681;48.982;8.394;2023-05-24T03:38:56;11.50;;;3.38;;
45970;SDS011;31681;48.982;8.394;2023-05-24T03:41:23;11.68;;;4.07;;
45970;SDS011;31681;48.982;8.394;2023-05-24T03:43:50;11.43;;;3.67;;
45970;SDS011;31681;48.982;8.394;2023-05-24T03:46:16;8.75;;;4.07;;
45970;SDS011;31681;48.982;8.394;2023-05-24T03:48:42;7.30;;;3.22;;
45970;SDS011;31681;48.982;8.394;2023-05-24T03:51:07;8.90;;;4.00;;
45970;SDS011;31681;48.982;8.394;2023-05-24T03:53:33;11.70;;;3.50;;
45970;SDS011;31681;48.982;8.394;2023-05-24T03:55:58;10.23;;;3.85;;
45970;SDS011;31681;48.982;8.394;2023-05-24T03:58:24;8.35;;;3.35;;
45970;SDS011;31681;48.982;8.394;2023-05-24T04:00:49;9.18;;;3.35;;
45970;SDS011;31681;48.982;8.394;2023-05-24T04:03:15;8.65;;;3.80;;
45970;SDS011;31681;48.982;8.394;2023-05-24T04:05:40;9.43;;;3.50;;
45970;SDS011;31681;48.982;8.394;2023-05-24T04:08:06;11.48;;;4.05;;
45970;SDS011;31681;48.982;8.394;2023-05-24T04:10:31;8.70;;;3.53;;
45970;SDS011;31681;48.982;8.394;2023-05-24T04:12:57;13.27;;;4.50;;
45970;SDS011;31681;48.982;8.394;2023-05-24T04:15:22;7.95;;;3.72;;
45970;SDS011;31681;48.982;8.394;2023-05-24T04:17:48;11.77;;;4.07;;
45970;SDS011;31681;48.982;8.394;2023-05-24T04:20:20;9.70;;;3.55;;
45970;SDS011;31681;48.982;8.394;2023-05-24T04:22:48;10.38;;;3.78;;
45970;SDS011;31681;48.982;8.394;2023-05-24T04:25:13;9.02;;;3.40;;
45970;SDS011;31681;48.982;8.394;2023-05-24T04:27:39;9.57;;;3.33;;
45970;SDS011;31681;48.982;8.394;2023-05-24T04:30:06;6.93;;;3.50;;
45970;SDS011;31681;48.982;8.394;2023-05-24T04:32:34;8.65;;;3.33;;
45970;SDS011;31681;48.982;8.394;2023-05-24T04:35:01;11.20;;;3.58;;
45970;SDS011;31681;48.982;8.394;2023-05-24T04:37:29;8.20;;;3.58;;
45970;SDS011;31681;48.982;8.394;2023-05-24T04:39:57;10.38;;;3.88;;
45970;SDS011;31681;48.982;8.394;2023-05-24T04:42:22;10.23;;;3.03;;
45970;SDS011;31681;48.982;8.394;2023-05-24T04:44:47;7.10;;;3.20;;
45970;SDS011;31681;48.982;8.394;2023-05-24T04:47:13;8.95;;;3.33;;
45970;SDS011;31681;48.982;8.394;2023-05-24T04:49:38;9.02;;;3.40;;
45970;SDS011;31681;48.982;8.394;2023-05-24T04:52:06;12.90;;;4.35;;
45970;SDS011;31681;48.982;8.394;2023-05-24T04:54:32;8.52;;;3.70;;
45970;SDS011;31681;48.982;8.394;2023-05-24T04:56:57;13.35;;;3.90;;
45970;SDS011;31681;48.982;8.394;2023-05-24T04:59:23;14.02;;;4.18;;
45970;SDS011;31681;48.982;8.394;2023-05-24T05:01:48;9.07;;;3.85;;
45970;SDS011;31681;48.982;8.394;2023-05-24T05:04:14;6.97;;;3.83;;
45970;SDS011;31681;48.982;8.394;2023-05-24T05:06:39;12.85;;;4.50;;
45970;SDS011;31681;48.982;8.394;2023-05-24T05:09:07;7.40;;;3.60;;
45970;SDS011;31681;48.982;8.394;2023-05-24T05:11:34;12.48;;;3.83;;
45970;SDS011;31681;48.982;8.394;2023-05-24T05:14:00;7.07;;;3.28;;
45970;SDS011;31681;48.982;8.394;2023-05-24T05:16:25;7.82;;;3.08;;
45970;SDS011;31681;48.982;8.394;2023-05-24T05:18:50;11.43;;;3.40;;
45970;SDS011;31681;48.982;8.394;2023-05-24T05:21:16;10.55;;;3.38;;
45970;SDS011;31681;48.982;8.394;2023-05-24T05:23:41;12.52;;;3.97;;
45970;SDS011;31681;48.982;8.394;2023-05-24T05:26:07;11.13;;;3.67;;
45970;SDS011;31681;48.982;8.394;2023-05-24T05:28:32;11.20;;;3.55;;
45970;SDS011;31681;48.982;8.394;2023-05-24T05:30:57;10.95;;;3.90;;
45970;SDS011;31681;48.982;8.394;2023-05-24T05:33:23;8.00;;;3.22;;
45970;SDS011;31681;48.982;8.394;2023-05-24T05:35:48;9.57;;;3.83;;
45970;SDS011;31681;48.982;8.394;2023-05-24T05:38:14;9.82;;;3.85;;
45970;SDS011;31681;48.982;8.394;2023-05-24T05:40:46;11.07;;;3.53;;
45970;SDS011;31681;48.982;8.394;2023-05-24T05:43:11;9.52;;;3.30;;
45970;SDS011;31681;48.982;8.394;2023-05-24T05:45:36;7.63;;;3.08;;
45970;SDS011;31681;48.982;8.394;2023-05-24T05:48:02;8.43;;;3.40;;
45970;SDS011;31681;48.982;8.394;2023-05-24T05:50:28;8.98;;;3.58;;
45970;SDS011;31681;48.982;8.394;2023-05-24T05:52:53;10.77;;;3.88;;
45970;SDS011;31681;48.982;8.394;2023-05-24T05:55:19;7.97;;;3.25;;
45970;SDS011;31681;48.982;8.394;2023-05-24T05:57:44;10.27;;;3.42;;
45970;SDS011;31681;48.982;8.394;2023-05-24T06:00:10;8.43;;;3.13;;
45970;SDS011;31681;48.982;8.394;2023-05-24T06:02:39;14.57;;;4.10;;
45970;SDS011;31681;48.982;8.394;2023-05-24T06:05:04;9.80;;;3.95;;
45970;SDS011;31681;48.982;8.394;2023-05-24T06:07:30;13.55;;;5.03;;
45970;SDS011;31681;48.982;8.394;2023-05-24T06:09:56;10.32;;;3.67;;
45970;SDS011;31681;48.982;8.394;2023-05-24T06:12:21;8.77;;;3.58;;
45970;SDS011;31681;48.982;8.394;2023-05-24T06:14:47;9.45;;;3.58;;
45970;SDS011;31681;48.982;8.394;2023-05-24T06:17:14;11.68;;;3.35;;
45970;SDS011;31681;48.982;8.394;2023-05-24T06:19:40;11.02;;;3.70;;
45970;SDS011;31681;48.982;8.394;2023-05-24T06:22:05;12.60;;;3.28;;
45970;SDS011;31681;48.982;8.394;2023-05-24T06:24:31;8.07;;;3.40;;
45970;SDS011;31681;48.982;8.394;2023-05-24T06:26:58;13.40;;;3.30;;
45970;SDS011;31681;48.982;8.394;2023-05-24T06:29:24;8.40;;;3.30;;
45970;SDS011;31681;48.982;8.394;2023-05-24T06:31:49;10.32;;;3.97;;
45970;SDS011;31681;48.982;8.394;2023-05-24T06:34:15;8.50;;;2.60;;
45970;SDS011;31681;48.982;8.394;2023-05-24T06:36:42;9.38;;;2.72;;
45970;SDS011;31681;48.982;8.394;2023-05-24T06:39:07;8.90;;;3.72;;
45970;SDS011;31681;48.982;8.394;2023-05-24T06:41:34;13.75;;;3.92;;
45970;SDS011;31681;48.982;8.394;2023-05-24T06:43:59;13.73;;;3.28;;
45970;SDS011;31681;48.982;8.394;2023-05-24T06:46:25;11.77;;;3.42;;
45970;SDS011;31681;48.982;8.394;2023-05-24T06:48:50;10.73;;;3.95;;
45970;SDS011;31681;48.982;8.394;2023-05-24T06:51:16;11.43;;;3.67;;
45970;SDS011;31681;48.982;8.394;2023-05-24T06:53:41;7.80;;;3.50;;
45970;SDS011;31681;48.982;8.394;2023-05-24T06:56:06;14.75;;;3.70;;
45970;SDS011;31681;48.982;8.394;2023-05-24T06:58:33;11.52;;;3.90;;
45970;SDS011;31681;48.982;8.394;2023-05-24T07:00:59;11.73;;;3.72;;
45970;SDS011;31681;48.982;8.394;2023-05-24T07:03:24;10.55;;;3.50;;
45970;SDS011;31681;48.982;8.394;2023-05-24T07:05:50;11.98;;;3.22;;
45970;SDS011;31681;48.982;8.394;2023-05-24T07:08:16;9.57;;;3.45;;
45970;SDS011;31681;48.982;8.394;2023-05-24T07:10:41;13.30;;;3.30;;
45970;SDS011;31681;48.982;8.394;2023-05-24T07:13:07;10.27;;;3.60;;
45970;SDS011;31681;48.982;8.394;2023-05-24T07:15:33;9.88;;;3.15;;
45970;SDS011;31681;48.982;8.394;2023-05-24T07:17:58;10.13;;;3.17;;
45970;SDS011;31681;48.982;8.394;2023-05-24T07:20:24;13.23;;;4.43;;
45970;SDS011;31681;48.982;8.394;2023-05-24T07:22:49;9.80;;;3.70;;
45970;SDS011;31681;48.982;8.394;2023-05-24T07:25:16;8.60;;;3.28;;
45970;SDS011;31681;48.982;8.394;2023-05-24T07:27:41;7.57;;;3.13;;
45970;SDS011;31681;48.982;8.394;2023-05-24T07:30:07;10.85;;;2.83;;
45970;SDS011;31681;48.982;8.394;2023-05-24T07:32:32;10.63;;;3.13;;
45970;SDS011;31681;48.982;8.394;2023-05-24T07:34:58;11.82;;;3.40;;
45970;SDS011;31681;48.982;8.394;2023-05-24T07:37:24;10.15;;;3.80;;
45970;SDS011;31681;48.982;8.394;2023-05-24T07:39:49;10.82;;;3.13;;
45970;SDS011;31681;48.982;8.394;2023-05-24T07:42:15;9.77;;;3.47;;
45970;SDS011;31681;48.982;8.394;2023-05-24T07:44:40;10.07;;;3.53;;
45970;SDS011;31681;48.982;8.394;2023-05-24T07:47:06;7.10;;;3.38;;
45970;SDS011;31681;48.982;8.394;2023-05-24T07:49:31;11.85;;;3.67;;
45970;SDS011;31681;48.982;8.394;2023-05-24T07:51:57;12.55;;;3.13;;
45970;SDS011;31681;48.982;8.394;2023-05-24T07:54:23;11.75;;;3.25;;
45970;SDS011;31681;48.982;8.394;2023-05-24T07:56:49;8.25;;;3.13;;
45970;SDS011;31681;48.982;8.394;2023-05-24T07:59:14;13.98;;;3.28;;
45970;SDS011;31681;48.982;8.394;2023-05-24T08:01:40;12.15;;;3.08;;
45970;SDS011;31681;48.982;8.394;2023-05-24T08:04:05;9.82;;;3.35;;
45970;SDS011;31681;48.982;8.394;2023-05-24T08:06:32;10.60;;;3.53;;
45970;SDS011;31681;48.982;8.394;2023-05-24T08:08:58;11.50;;;3.15;;
45970;SDS011;31681;48.982;8.394;2023-05-24T08:11:24;13.15;;;3.53;;
45970;SDS011;31681;48.982;8.394;2023-05-24T08:13:49;11.48;;;3.20;;
45970;SDS011;31681;48.982;8.394;2023-05-24T08:16:15;11.55;;;3.28;;
45970;SDS011;31681;48.982;8.394;2023-05-24T08:18:40;11.75;;;3.65;;
45970;SDS011;31681;48.982;8.394;2023-05-24T08:21:06;16.65;;;3.72;;
45970;SDS011;31681;48.982;8.394;2023-05-24T08:23:33;7.88;;;2.90;;
45970;SDS011;31681;48.982;8.394;2023-05-24T08:25:58;9.05;;;3.00;;
45970;SDS011;31681;48.982;8.394;2023-05-24T08:28:24;9.00;;;2.67;;
45970;SDS011;31681;48.982;8.394;2023-05-24T08:30:50;9.50;;;2.80;;
45970;SDS011;31681;48.982;8.394;2023-05-24T08:33:15;9.23;;;2.80;;
45970;SDS011;31681;48.982;8.394;2023-05-24T08:35:41;7.85;;;2.70;;
45970;SDS011;31681;48.982;8.394;2023-05-24T08:38:07;10.77;;;3.03;;
45970;SDS011;31681;48.982;8.394;2023-05-24T08:40:32;9.57;;;2.92;;
45970;SDS011;31681;48.982;8.394;2023-05-24T08:42:59;9.70;;;3.08;;
45970;SDS011;31681;48.982;8.394;2023-05-24T08:45:25;13.60;;;3.63;;
45970;SDS011;31681;48.982;8.394;2023-05-24T08:47:53;9.20;;;2.75;;
45970;SDS011;31681;48.982;8.394;2023-05-24T08:50:19;9.50;;;2.92;;
45970;SDS011;31681;48.982;8.394;2023-05-24T08:52:44;11.80;;;2.80;;
45970;SDS011;31681;48.982;8.394;2023-05-24T08:55:10;10.35;;;3.33;;
45970;SDS011;31681;48.982;8.394;2023-05-24T08:57:35;10.55;;;2.63;;
45970;SDS011;31681;48.982;8.394;2023-05-24T09:00:06;9.13;;;2.60;;
45970;SDS011;31681;48.982;8.394;2023-05-24T09:02:33;8.00;;;2.80;;
45970;SDS011;31681;48.982;8.394;2023-05-24T09:04:59;11.43;;;3.00;;
45970;SDS011;31681;48.982;8.394;2023-05-24T09:07:24;6.20;;;2.53;;
45970;SDS011;31681;48.982;8.394;2023-05-24T09:10:02;7.88;;;2.60;;
45970;SDS011;31681;48.982;8.394;2023-05-24T09:12:29;7.50;;;2.80;;
45970;SDS011;31681;48.982;8.394;2023-05-24T09:14:57;6.93;;;2.50;;
45970;SDS011;31681;48.982;8.394;2023-05-24T09:17:22;11.30;;;2.50;;
45970;SDS011;31681;48.982;8.394;2023-05-24T09:19:49;10.25;;;2.38;;
45970;SDS011;31681;48.982;8.394;2023-05-24T09:22:15;9.68;;;3.33;;
45970;SDS011;31681;48.982;8.394;2023-05-24T09:24:47;11.52;;;2.90;;
45970;SDS011;31681;48.982;8.394;2023-05-24T09:27:16;7.43;;;2.20;;
45970;SDS011;31681;48.982;8.394;2023-05-24T09:29:42;10.57;;;2.72;;
45970;SDS011;31681;48.982;8.394;2023-05-24T09:32:11;10.05;;;2.55;;
45970;SDS011;31681;48.982;8.394;2023-05-24T09:34:37;15.52;;;3.30;;
45970;SDS011;31681;48.982;8.394;2023-05-24T09:37:03;8.10;;;2.47;;
45970;SDS011;31681;48.982;8.394;2023-05-24T09:39:29;6.97;;;2.35;;
45970;SDS011;31681;48.982;8.394;2023-05-24T09:41:56;9.25;;;2.78;;
45970;SDS011;31681;48.982;8.394;2023-05-24T09:44:26;5.50;;;2.00;;
45970;SDS011;31681;48.982;8.394;2023-05-24T09:47:00;6.93;;;2.85;;
45970;SDS011;31681;48.982;8.394;2023-05-24T09:49:26;8.93;;;2.70;;
45970;SDS011;31681;48.982;8.394;2023-05-24T09:51:51;5.53;;;2.25;;
45970;SDS011;31681;48.982;8.394;2023-05-24T09:54:17;7.60;;;2.67;;
45970;SDS011;31681;48.982;8.394;2023-05-24T09:56:42;6.78;;;2.50;;
45970;SDS011;31681;48.982;8.394;2023-05-24T09:59:10;8.20;;;2.65;;
45970;SDS011;31681;48.982;8.394;2023-05-24T10:01:35;8.70;;;3.20;;
45970;SDS011;31681;48.982;8.394;2023-05-24T10:04:01;10.20;;;3.08;;
45970;SDS011;31681;48.982;8.394;2023-05-24T10:06:30;10.27;;;2.95;;
45970;SDS011;31681;48.982;8.394;2023-05-24T10:08:59;10.43;;;2.50;;
45970;SDS011;31681;48.982;8.394;2023-05-24T10:11:24;8.00;;;2.25;;
45970;SDS011;31681;48.982;8.394;2023-05-24T10:13:50;7.05;;;2.28;;
45970;SDS011;31681;48.982;8.394;2023-05-24T10:16:16;5.60;;;1.80;;
45970;SDS011;31681;48.982;8.394;2023-05-24T10:18:41;3.88;;;1.98;;
45970;SDS011;31681;48.982;8.394;2023-05-24T10:21:07;8.70;;;2.58;;
45970;SDS011;31681;48.982;8.394;2023-05-24T10:23:35;10.45;;;2.35;;
45970;SDS011;31681;48.982;8.394;2023-05-24T10:26:05;8.10;;;2.45;;
45970;SDS011;31681;48.982;8.394;2023-05-24T10:28:31;6.75;;;2.40;;
45970;SDS011;31681;48.982;8.394;2023-05-24T10:31:02;10.65;;;2.38;;
45970;SDS011;31681;48.982;8.394;2023-05-24T10:33:29;8.02;;;2.17;;
45970;SDS011;31681;48.982;8.394;2023-05-24T10:35:56;11.70;;;3.40;;
45970;SDS011;31681;48.982;8.394;2023-05-24T10:38:22;10.07;;;2.47;;
45970;SDS011;31681;48.982;8.394;2023-05-24T10:40:49;8.23;;;2.55;;
45970;SDS011;31681;48.982;8.394;2023-05-24T10:43:15;7.93;;;2.65;;
45970;SDS011;31681;48.982;8.394;2023-05-24T10:45:41;10.05;;;2.33;;
45970;SDS011;31681;48.982;8.394;2023-05-24T10:50:38;8.20;;;2.53;;
45970;SDS011;31681;48.982;8.394;2023-05-24T10:53:14;9.70;;;2.40;;
45970;SDS011;31681;48.982;8.394;2023-05-24T10:55:55;7.32;;;2.42;;
45970;SDS011;31681;48.982;8.394;2023-05-24T10:58:22;6.95;;;2.10;;
45970;SDS011;31681;48.982;8.394;2023-05-24T11:00:51;8.95;;;2.67;;
45970;SDS011;31681;48.982;8.394;2023-05-24T11:03:17;7.18;;;2.63;;
45970;SDS011;31681;48.982;8.394;2023-05-24T11:08:23;9.32;;;2.30;;
45970;SDS011;31681;48.982;8.394;2023-05-24T11:11:00;6.95;;;2.35;;
45970;SDS011;31681;48.982;8.394;2023-05-24T11:13:26;7.15;;;2.08;;
45970;SDS011;31681;48.982;8.394;2023-05-24T11:15:51;8.65;;;2.22;;
45970;SDS011;31681;48.982;8.394;2023-05-24T11:18:20;6.13;;;2.20;;
45970;SDS011;31681;48.982;8.394;2023-05-24T11:20:46;5.90;;;2.35;;
45970;SDS011;31681;48.982;8.394;2023-05-24T11:23:13;5.57;;;2.17;;
45970;SDS011;31681;48.982;8.394;2023-05-24T11:25:39;7.00;;;2.30;;
45970;SDS011;31681;48.982;8.394;2023-05-24T11:28:08;7.57;;;2.53;;
45970;SDS011;31681;48.982;8.394;2023-05-24T11:30:53;6.38;;;2.45;;
45970;SDS011;31681;48.982;8.394;2023-05-24T11:33:21;7.47;;;2.58;;
45970;SDS011;31681;48.982;8.394;2023-05-24T11:35:51;10.95;;;2.65;;
45970;SDS011;31681;48.982;8.394;2023-05-24T11:38:17;6.18;;;2.33;;
45970;SDS011;31681;48.982;8.394;2023-05-24T11:40:44;7.50;;;2.30;;
45970;SDS011;31681;48.982;8.394;2023-05-24T11:43:13;8.20;;;2.55;;
45970;SDS011;31681;48.982;8.394;2023-05-24T11:45:43;9.70;;;2.63;;
45970;SDS011;31681;48.982;8.394;2023-05-24T11:48:09;9.13;;;2.50;;
45970;SDS011;31681;48.982;8.394;2023-05-24T11:50:38;8.65;;;2.63;;
45970;SDS011;31681;48.982;8.394;2023-05-24T11:53:04;8.40;;;2.45;;
45970;SDS011;31681;48.982;8.394;2023-05-24T11:55:29;8.55;;;2.40;;
45970;SDS011;31681;48.982;8.394;2023-05-24T11:57:56;7.45;;;2.60;;
45970;SDS011;31681;48.982;8.394;2023-05-24T12:00:25;12.90;;;2.40;;
45970;SDS011;31681;48.982;8.394;2023-05-24T12:02:51;11.20;;;2.50;;
45970;SDS011;31681;48.982;8.394;2023-05-24T12:05:20;10.45;;;2.67;;
45970;SDS011;31681;48.982;8.394;2023-05-24T12:07:46;9.70;;;2.60;;
45970;SDS011;31681;48.982;8.394;2023-05-24T12:10:16;9.68;;;2.78;;
45970;SDS011;31681;48.982;8.394;2023-05-24T12:12:45;7.30;;;2.13;;
45970;SDS011;31681;48.982;8.394;2023-05-24T12:15:11;8.70;;;2.50;;
45970;SDS011;31681;48.982;8.394;2023-05-24T12:17:38;12.02;;;3.15;;
45970;SDS011;31681;48.982;8.394;2023-05-24T12:20:03;6.82;;;2.28;;
45970;SDS011;31681;48.982;8.394;2023-05-24T12:22:30;6.15;;;2.35;;
45970;SDS011;31681;48.982;8.394;2023-05-24T12:24:57;11.48;;;2.80;;
45970;SDS011;31681;48.982;8.394;2023-05-24T12:27:29;9.88;;;2.55;;
45970;SDS011;31681;48.982;8.394;2023-05-24T12:29:55;10.02;;;2.47;;
45970;SDS011;31681;48.982;8.394;2023-05-24T12:32:20;6.45;;;2.58;;
45970;SDS011;31681;48.982;8.394;2023-05-24T12:34:48;12.73;;;3.10;;
45970;SDS011;31681;48.982;8.394;2023-05-24T12:37:13;10.75;;;3.28;;
45970;SDS011;31681;48.982;8.394;2023-05-24T12:39:39;7.53;;;2.25;;
45970;SDS011;31681;48.982;8.394;2023-05-24T12:42:06;8.38;;;2.97;;
45970;SDS011;31681;48.982;8.394;2023-05-24T12:44:33;9.27;;;2.80;;
45970;SDS011;31681;48.982;8.394;2023-05-24T12:47:00;9.82;;;2.63;;
45970;SDS011;31681;48.982;8.394;2023-05-24T12:49:26;8.95;;;3.25;;
45970;SDS011;31681;48.982;8.394;2023-05-24T12:51:52;9.32;;;2.92;;
45970;SDS011;31681;48.982;8.394;2023-05-24T12:54:18;7.70;;;2.30;;
45970;SDS011;31681;48.982;8.394;2023-05-24T12:56:44;7.50;;;3.00;;
45970;SDS011;31681;48.982;8.394;2023-05-24T12:59:09;5.70;;;2.33;;
45970;SDS011;31681;48.982;8.394;2023-05-24T13:01:36;7.38;;;2.60;;
45970;SDS011;31681;48.982;8.394;2023-05-24T13:04:01;8.63;;;3.05;;
45970;SDS011;31681;48.982;8.394;2023-05-24T13:06:26;9.00;;;2.60;;
45970;SDS011;31681;48.982;8.394;2023-05-24T13:08:52;7.32;;;2.40;;
45970;SDS011;31681;48.982;8.394;2023-05-24T13:11:17;8.00;;;2.45;;
45970;SDS011;31681;48.982;8.394;2023-05-24T13:13:43;5.60;;;2.83;;
45970;SDS011;31681;48.982;8.394;2023-05-24T13:16:11;5.82;;;2.38;;
45970;SDS011;31681;48.982;8.394;2023-05-24T13:18:37;5.05;;;2.20;;
45970;SDS011;31681;48.982;8.394;2023-05-24T13:21:03;5.28;;;2.03;;
45970;SDS011;31681;48.982;8.394;2023-05-24T13:23:30;8.55;;;2.40;;
45970;SDS011;31681;48.982;8.394;2023-05-24T13:25:55;6.97;;;2.30;;
45970;SDS011;31681;48.982;8.394;2023-05-24T13:28:21;10.52;;;2.75;;
45970;SDS011;31681;48.982;8.394;2023-05-24T13:30:51;13.73;;;3.08;;
45970;SDS011;31681;48.982;8.394;2023-05-24T13:33:17;8.65;;;2.28;;
45970;SDS011;31681;48.982;8.394;2023-05-24T13:35:43;8.85;;;3.05;;
45970;SDS011;31681;48.982;8.394;2023-05-24T13:38:08;8.32;;;2.90;;
45970;SDS011;31681;48.982;8.394;2023-05-24T13:40:34;5.95;;;2.58;;
45970;SDS011;31681;48.982;8.394;2023-05-24T13:42:59;7.72;;;2.22;;
45970;SDS011;31681;48.982;8.394;2023-05-24T13:45:25;7.28;;;2.80;;
45970;SDS011;31681;48.982;8.394;2023-05-24T13:47:51;6.40;;;2.28;;
45970;SDS011;31681;48.982;8.394;2023-05-24T13:50:17;5.07;;;2.45;;
45970;SDS011;31681;48.982;8.394;2023-05-24T13:52:44;8.73;;;2.50;;
45970;SDS011;31681;48.982;8.394;2023-05-24T13:55:10;6.30;;;2.35;;
45970;SDS011;31681;48.982;8.394;2023-05-24T13:57:35;9.43;;;3.03;;
45970;SDS011;31681;48.982;8.394;2023-05-24T14:00:01;6.60;;;2.50;;
45970;SDS011;31681;48.982;8.394;2023-05-24T14:02:26;10.32;;;2.75;;
45970;SDS011;31681;48.982;8.394;2023-05-24T14:04:52;10.25;;;2.58;;
45970;SDS011;31681;48.982;8.394;2023-05-24T14:07:18;8.02;;;2.50;;
45970;SDS011;31681;48.982;8.394;2023-05-24T14:09:43;6.50;;;2.28;;
45970;SDS011;31681;48.982;8.394;2023-05-24T14:12:09;8.35;;;2.30;;
45970;SDS011;31681;48.982;8.394;2023-05-24T14:14:34;8.23;;;2.67;;
45970;SDS011;31681;48.982;8.394;2023-05-24T14:17:00;10.52;;;2.22;;
45970;SDS011;31681;48.982;8.394;2023-05-24T14:19:25;7.45;;;2.70;;
45970;SDS011;31681;48.982;8.394;2023-05-24T14:21:51;7.53;;;2.33;;
45970;SDS011;31681;48.982;8.394;2023-05-24T14:24:16;10.00;;;2.67;;
45970;SDS011;31681;48.982;8.394;2023-05-24T14:26:41;6.72;;;2.33;;
45970;SDS011;31681;48.982;8.394;2023-05-24T14:29:07;5.57;;;2.13;;
45970;SDS011;31681;48.982;8.394;2023-05-24T14:31:33;5.80;;;2.55;;
45970;SDS011;31681;48.982;8.394;2023-05-24T14:34:05;9.15;;;2.40;;
45970;SDS011;31681;48.982;8.394;2023-05-24T14:36:31;6.70;;;2.25;;
45970;SDS011;31681;48.982;8.394;2023-05-24T14:38:57;7.78;;;2.63;;
45970;SDS011;31681;48.982;8.394;2023-05-24T14:41:23;7.85;;;2.50;;
45970;SDS011;31681;48.982;8.394;2023-05-24T14:43:48;6.55;;;2.10;;
45970;SDS011;31681;48.982;8.394;2023-05-24T14:46:13;9.40;;;2.45;;
45970;SDS011;31681;48.982;8.394;2023-05-24T14:48:40;4.95;;;2.30;;
45970;SDS011;31681;48.982;8.394;2023-05-24T14:51:06;5.47;;;2.13;;
45970;SDS011;31681;48.982;8.394;2023-05-24T14:53:31;6.60;;;2.70;;
45970;SDS011;31681;48.982;8.394;2023-05-24T14:55:59;7.70;;;2.47;;
45970;SDS011;31681;48.982;8.394;2023-05-24T14:58:25;7.15;;;2.65;;
45970;SDS011;31681;48.982;8.394;2023-05-24T15:00:51;5.00;;;2.30;;